createdAt,value
2023-05-24T00:00:28.957Z,100153.00
2023-05-24T00:05:52.574Z,100157.20
2023-05-24T00:10:55.514Z,100149.20
2023-05-24T00:15:58.414Z,100149.60
2023-05-24T00:21:01.358Z,100147.00
2023-05-24T00:26:05.696Z,100149.80
2023-05-24T00:31:08.690Z,100152.80
2023-05-24T00:36:11.572Z,100152.60
2023-05-24T00:41:14.593Z,100145.60
2023-05-24T00:46:44.165Z,100146.60
2023-05-24T00:51:48.266Z,100137.20
2023-05-24T00:56:51.580Z,100136.80
2023-05-24T01:01:55.604Z,100134.80
2023-05-24T01:07:48.657Z,100131.00
2023-05-24T01:13:04.609Z,100131.00
2023-05-24T01:18:26.171Z,100132.20
2023-05-24T01:24:18.605Z,100134.60
2023-05-24T01:29:23.879Z,100134.80
2023-05-24T01:34:26.870Z,100137.40
2023-05-24T01:39:31.104Z,100139.20
2023-05-24T01:45:08.869Z,100143.40
2023-05-24T01:50:27.014Z,100143.00
2023-05-24T01:55:33.246Z,100146.20
2023-05-24T02:00:37.633Z,100144.00
2023-05-24T02:05:40.607Z,100148.80
2023-05-24T02:10:43.803Z,100146.80
2023-05-24T02:15:48.102Z,100142.40
2023-05-24T02:20:51.509Z,100142.60
2023-05-24T02:25:55.663Z,100150.40
2023-05-24T02:30:58.927Z,100143.40
2023-05-24T02:36:01.856Z,100147.80
2023-05-24T02:41:04.830Z,100147.60
2023-05-24T02:46:07.767Z,100138.40
2023-05-24T02:51:10.652Z,100144.40
2023-05-24T02:56:14.139Z,100139.20
2023-05-24T03:01:17.063Z,100146.00
2023-05-24T03:06:19.984Z,100147.20
2023-05-24T03:11:24.107Z,100143.40
2023-05-24T03:16:27.073Z,100140.80
2023-05-24T03:21:30.078Z,100143.20
2023-05-24T03:26:33.084Z,100149.40
2023-05-24T03:31:36.181Z,100146.20
2023-05-24T03:36:39.085Z,100146.60
2023-05-24T03:41:41.947Z,100153.00
2023-05-24T03:46:44.839Z,100157.60
2023-05-24T03:51:47.729Z,100156.40
2023-05-24T03:56:50.575Z,100158.60
2023-05-24T04:01:53.496Z,100155.00
2023-05-24T04:06:56.431Z,100158.00
2023-05-24T04:11:59.296Z,100163.40
2023-05-24T04:17:04.685Z,100162.20
2023-05-24T04:22:07.748Z,100164.60
2023-05-24T04:27:10.715Z,100170.60
2023-05-24T04:32:14.891Z,100177.20
2023-05-24T04:37:17.830Z,100175.80
2023-05-24T04:42:20.744Z,100177.60
2023-05-24T04:47:24.289Z,100181.40
2023-05-24T04:52:27.938Z,100187.80
2023-05-24T04:57:31.104Z,100193.20
2023-05-24T05:02:35.142Z,100195.20
2023-05-24T05:07:38.611Z,100202.80
2023-05-24T05:12:41.484Z,100208.00
2023-05-24T05:17:44.555Z,100213.40
2023-05-24T05:22:48.929Z,100223.40
2023-05-24T05:27:51.915Z,100221.40
2023-05-24T05:32:54.918Z,100226.00
2023-05-24T05:37:57.990Z,100229.20
2023-05-24T05:43:01.020Z,100234.40
2023-05-24T05:48:04.151Z,100241.80
2023-05-24T05:53:07.024Z,100245.00
2023-05-24T05:58:10.062Z,100246.80
2023-05-24T06:03:13.503Z,100242.80
2023-05-24T06:08:16.593Z,100252.40
2023-05-24T06:13:19.500Z,100259.40
2023-05-24T06:18:22.509Z,100260.00
2023-05-24T06:23:25.482Z,100263.20
2023-05-24T06:28:28.498Z,100268.80
2023-05-24T06:33:32.673Z,100274.60
2023-05-24T06:38:36.502Z,100274.80
2023-05-24T06:43:40.641Z,100282.40
2023-05-24T06:48:43.599Z,100288.80
2023-05-24T06:53:46.785Z,100296.60
2023-05-24T06:58:49.770Z,100295.60
2023-05-24T07:03:52.883Z,100298.00
2023-05-24T07:08:56.158Z,100301.40
2023-05-24T07:13:59.050Z,100307.00
2023-05-24T07:19:04.721Z,100310.20
2023-05-24T07:24:08.673Z,100318.80
2023-05-24T07:29:12.075Z,100332.00
2023-05-24T07:34:15.891Z,100338.20
2023-05-24T07:39:19.215Z,100343.60
2023-05-24T07:44:22.554Z,100348.00
2023-05-24T07:49:25.565Z,100349.60
2023-05-24T07:54:28.460Z,100353.60
2023-05-24T07:59:31.478Z,100357.80
2023-05-24T08:04:35.050Z,100367.00
2023-05-24T08:09:38.588Z,100372.60
2023-05-24T08:14:41.715Z,100376.20
2023-05-24T08:19:44.692Z,100376.00
2023-05-24T08:24:47.579Z,100384.00
2023-05-24T08:29:50.772Z,100383.80
2023-05-24T08:35:00.390Z,100386.00
2023-05-24T08:40:10.131Z,100396.40
2023-05-24T08:45:15.937Z,100399.00
2023-05-24T08:50:20.383Z,100402.60
2023-05-24T08:55:24.751Z,100398.20
2023-05-24T09:00:28.149Z,100404.20
2023-05-24T09:05:32.806Z,100403.20
2023-05-24T09:10:45.563Z,100404.80
2023-05-24T09:16:00.300Z,100412.60
2023-05-24T09:21:03.365Z,100407.00
2023-05-24T09:26:11.536Z,100411.80
2023-05-24T09:31:14.491Z,100416.40
2023-05-24T09:36:17.560Z,100422.00
2023-05-24T09:41:20.671Z,100425.40
2023-05-24T09:46:23.738Z,100428.80
2023-05-24T09:51:27.174Z,100434.00
2023-05-24T09:56:33.076Z,100443.80
2023-05-24T10:01:36.510Z,100434.40
2023-05-24T10:06:43.150Z,100440.00
2023-05-24T10:11:46.280Z,100434.80
2023-05-24T10:16:49.278Z,100438.20
2023-05-24T10:21:55.887Z,100439.60
2023-05-24T10:27:02.480Z,100437.20
2023-05-24T10:32:06.400Z,100434.40
2023-05-24T10:37:09.731Z,100436.80
2023-05-24T10:42:13.931Z,100449.20
2023-05-24T10:47:20.832Z,100443.20
2023-05-24T10:52:37.504Z,100442.40
2023-05-24T10:57:41.399Z,100440.40
2023-05-24T11:02:44.720Z,100437.00
2023-05-24T11:07:48.484Z,100431.00
2023-05-24T11:13:01.616Z,100433.40
2023-05-24T11:18:12.931Z,100436.20
2023-05-24T11:23:17.056Z,100434.40
2023-05-24T11:28:22.168Z,100434.00
2023-05-24T11:33:25.165Z,100437.60
2023-05-24T11:38:28.141Z,100433.80
2023-05-24T11:43:31.699Z,100438.00
2023-05-24T11:48:35.131Z,100432.20
2023-05-24T11:53:38.746Z,100441.20
2023-05-24T11:58:56.366Z,100440.60
2023-05-24T12:03:59.426Z,100444.60
2023-05-24T12:09:05.655Z,100445.60
2023-05-24T12:14:13.837Z,100452.80
2023-05-24T12:19:32.340Z,100454.40
2023-05-24T12:24:38.002Z,100452.80
2023-05-24T12:29:42.619Z,100447.40
2023-05-24T12:34:45.987Z,100455.60
2023-05-24T12:39:48.915Z,100453.80
2023-05-24T12:44:54.390Z,100456.40
2023-05-24T12:49:57.381Z,100456.20
2023-05-24T12:55:00.381Z,100458.80
2023-05-24T13:00:05.772Z,100462.40
2023-05-24T13:05:09.111Z,100457.20
2023-05-24T13:10:13.963Z,100456.00
2023-05-24T13:15:16.852Z,100459.60
2023-05-24T13:20:22.471Z,100461.80
2023-05-24T13:25:26.773Z,100463.80
2023-05-24T13:30:30.230Z,100465.40
2023-05-24T13:35:33.201Z,100465.40
2023-05-24T13:40:37.856Z,100464.80
2023-05-24T13:45:42.464Z,100463.00
2023-05-24T13:50:45.625Z,100464.20
2023-05-24T13:55:49.298Z,100466.00
2023-05-24T14:00:52.321Z,100463.80
2023-05-24T14:05:55.283Z,100466.20
2023-05-24T14:10:58.226Z,100464.60
2023-05-24T14:16:01.355Z,100460.80
2023-05-24T14:21:04.374Z,100460.20
2023-05-24T14:26:07.271Z,100460.60
2023-05-24T14:31:10.297Z,100461.00
2023-05-24T14:36:13.235Z,100455.20
2023-05-24T14:41:16.372Z,100456.80
2023-05-24T14:46:19.454Z,100466.00
2023-05-24T14:51:22.627Z,100464.80
2023-05-24T14:56:25.540Z,100467.00
2023-05-24T15:01:28.618Z,100471.20
2023-05-24T15:06:34.995Z,100468.80
2023-05-24T15:11:38.148Z,100466.40
2023-05-24T15:16:41.365Z,100471.80
2023-05-24T15:21:44.366Z,100467.00
2023-05-24T15:26:47.479Z,100467.40
2023-05-24T15:31:50.491Z,100463.80
2023-05-24T15:36:53.623Z,100465.40
2023-05-24T15:41:57.151Z,100465.80
2023-05-24T15:47:00.245Z,100465.20
2023-05-24T15:52:05.150Z,100470.60
2023-05-24T15:57:08.526Z,100463.40
2023-05-24T16:02:11.589Z,100465.20
2023-05-24T16:07:14.554Z,100466.60
2023-05-24T16:12:18.901Z,100475.40
2023-05-24T16:17:21.976Z,100482.60
2023-05-24T16:22:25.211Z,100485.80
2023-05-24T16:27:28.319Z,100496.80
2023-05-24T16:32:31.700Z,100494.80
2023-05-24T16:37:35.029Z,100497.60
2023-05-24T16:42:38.032Z,100494.60
2023-05-24T16:47:41.138Z,100495.60
2023-05-24T16:52:45.387Z,100502.00
2023-05-24T16:57:48.342Z,100500.60
2023-05-24T17:02:51.288Z,100507.00
2023-05-24T17:07:55.635Z,100509.80
2023-05-24T17:12:58.985Z,100511.20
2023-05-24T17:18:01.984Z,100513.40
2023-05-24T17:23:04.897Z,100516.40
2023-05-24T17:28:07.834Z,100520.80
2023-05-24T17:33:10.744Z,100525.00
2023-05-24T17:38:13.650Z,100529.40
2023-05-24T17:43:16.484Z,100528.80
2023-05-24T17:48:19.435Z,100533.80
2023-05-24T17:53:31.332Z,100540.40
2023-05-24T17:58:38.057Z,100542.00
2023-05-24T18:03:42.777Z,100542.60
2023-05-24T18:08:45.818Z,100547.80
2023-05-24T18:13:48.811Z,100555.00
2023-05-24T18:18:51.664Z,100556.60
2023-05-24T18:23:54.677Z,100566.40
2023-05-24T18:28:57.610Z,100570.00
2023-05-24T18:34:01.906Z,100574.80
2023-05-24T18:39:05.030Z,100580.00
2023-05-24T18:44:07.924Z,100589.80
2023-05-24T18:49:12.106Z,100594.80
2023-05-24T18:54:15.049Z,100601.20
2023-05-24T18:59:18.180Z,100606.80
2023-05-24T19:04:21.764Z,100606.60
2023-05-24T19:09:24.963Z,100607.20
2023-05-24T19:14:27.906Z,100609.20
2023-05-24T19:19:32.054Z,100614.20
2023-05-24T19:24:35.300Z,100609.80
2023-05-24T19:29:40.084Z,100613.80
2023-05-24T19:34:44.124Z,100615.40
2023-05-24T19:39:47.987Z,100616.60
2023-05-24T19:44:54.980Z,100622.00
2023-05-24T19:49:58.436Z,100624.60
2023-05-24T19:55:01.423Z,100629.20
2023-05-24T20:00:06.532Z,100629.20
2023-05-24T20:05:10.217Z,100630.80
2023-05-24T20:10:13.507Z,100635.00
2023-05-24T20:15:21.607Z,100627.80
2023-05-24T20:20:26.236Z,100629.40
2023-05-24T20:25:31.174Z,100631.80
2023-05-24T20:30:35.292Z,100627.80
2023-05-24T20:35:38.874Z,100630.40
2023-05-24T20:40:42.549Z,100631.00
2023-05-24T20:45:46.090Z,100634.40
2023-05-24T20:50:49.308Z,100640.20
2023-05-24T20:55:52.469Z,100641.40
2023-05-24T21:00:56.173Z,100636.40
2023-05-24T21:06:00.198Z,100643.60
2023-05-24T21:11:03.296Z,100647.40
2023-05-24T21:16:06.336Z,100653.40
2023-05-24T21:21:09.576Z,100661.00
2023-05-24T21:26:12.520Z,100667.00
2023-05-24T21:31:15.580Z,100670.60
2023-05-24T21:36:18.611Z,100677.60
2023-05-24T21:41:22.436Z,100677.80
2023-05-24T21:46:28.024Z,100677.40
2023-05-24T21:51:31.076Z,100686.60
2023-05-24T21:56:34.463Z,100682.80
2023-05-24T22:01:39.258Z,100682.20
2023-05-24T22:06:42.885Z,100687.40
2023-05-24T22:11:45.826Z,100680.20
2023-05-24T22:16:49.480Z,100684.60
2023-05-24T22:21:52.551Z,100688.80
2023-05-24T22:26:56.006Z,100684.20
2023-05-24T22:31:58.894Z,100678.80
2023-05-24T22:37:01.850Z,100680.80
2023-05-24T22:42:05.078Z,100670.80
2023-05-24T22:47:12.087Z,100669.00
2023-05-24T22:52:15.073Z,100670.60
2023-05-24T22:57:21.870Z,100673.80
2023-05-24T23:02:24.844Z,100681.60
2023-05-24T23:07:27.810Z,100675.40
2023-05-24T23:12:30.689Z,100679.80
2023-05-24T23:17:33.581Z,100680.60
2023-05-24T23:22:37.769Z,100678.40
2023-05-24T23:27:41.233Z,100688.60
2023-05-24T23:32:44.225Z,100687.20
2023-05-24T23:37:47.124Z,100679.20
2023-05-24T23:42:50.013Z,100684.60
2023-05-24T23:47:52.873Z,100679.20
2023-05-24T23:52:56.428Z,100685.40
2023-05-24T23:58:00.462Z,100687.20
